Time;durP1;ratioP1;P1;durP2;ratioP2;P2;SDS_P1;SDS_P2;PMS_P1;PMS_P2;Temp;Humidity;BMP_temperature;BMP_pressure;BME280_temperature;BME280_humidity;BME280_pressure;Samples;Min_cycle;Max_cycle;Signal;HPM_P1;HPM_P2
2021/10/29 00:00:29;;;;;;;18.33;14.97;;;9.20;1.00;;;;;;5057876;28;20466;-45
2021/10/29 00:02:56;;;;;;;16.77;14.17;;;9.20;1.00;;;;;;5057152;28;20936;-48
2021/10/29 00:05:24;;;;;;;21.37;15.23;;;9.30;1.00;;;;;;5057112;28;20498;-46
2021/10/29 00:07:57;;;;;;;21.13;14.67;;;9.30;1.00;;;;;;5057390;28;20512;-51
2021/10/29 00:10:25;;;;;;;20.80;15.23;;;9.20;1.00;;;;;;5057811;28;20869;-49
2021/10/29 00:12:55;;;;;;;20.10;15.70;;;9.30;1.00;;;;;;5057409;28;20464;-46
2021/10/29 00:15:31;;;;;;;17.53;15.27;;;9.30;1.00;;;;;;5057325;28;20454;-49
2021/10/29 00:17:59;;;;;;;17.03;13.90;;;9.40;1.00;;;;;;5057341;28;20466;-45
2021/10/29 00:20:29;;;;;;;18.87;15.07;;;9.30;1.00;;;;;;5056940;28;20595;-48
2021/10/29 00:22:58;;;;;;;21.23;15.67;;;9.30;1.00;;;;;;5057390;28;20488;-48
2021/10/29 00:25:25;;;;;;;20.90;15.30;;;9.30;1.00;;;;;;5056530;28;20500;-45
2021/10/29 00:27:54;;;;;;;22.57;15.87;;;9.30;1.00;;;;;;5057015;28;20462;-47
2021/10/29 00:30:22;;;;;;;22.70;14.93;;;9.40;1.00;;;;;;5056712;28;20924;-45
2021/10/29 00:32:52;;;;;;;21.47;15.40;;;9.40;1.00;;;;;;5056993;28;20485;-45
2021/10/29 00:35:25;;;;;;;20.60;16.00;;;9.40;1.00;;;;;;5057058;28;20760;-45
2021/10/29 00:37:54;;;;;;;21.67;14.90;;;9.40;1.00;;;;;;5056650;28;20463;-47
2021/10/29 00:40:31;;;;;;;20.63;15.13;;;9.40;1.00;;;;;;5051123;28;20517;-47
2021/10/29 00:43:02;;;;;;;22.00;14.70;;;9.40;1.00;;;;;;5050790;28;20466;-49
2021/10/29 00:45:29;;;;;;;22.80;15.20;;;9.40;1.00;;;;;;5056256;28;20529;-45
2021/10/29 00:47:56;;;;;;;20.63;15.17;;;9.40;1.00;;;;;;5056746;28;20763;-49
2021/10/29 00:50:32;;;;;;;25.77;16.13;;;9.40;1.00;;;;;;5057173;28;20516;-49
2021/10/29 00:52:59;;;;;;;19.10;14.63;;;9.40;1.00;;;;;;5056749;28;20470;-46
2021/10/29 00:55:27;;;;;;;21.37;15.90;;;9.30;1.00;;;;;;5056427;28;20592;-45
2021/10/29 00:57:54;;;;;;;17.93;13.53;;;9.40;1.00;;;;;;5056674;28;20462;-47
2021/10/29 01:00:25;;;;;;;23.97;15.70;;;9.40;1.00;;;;;;5055649;28;20749;-48
2021/10/29 01:02:52;;;;;;;21.40;14.93;;;9.30;1.00;;;;;;5056353;28;20486;-47
2021/10/29 01:05:19;;;;;;;19.70;14.83;;;9.40;1.00;;;;;;5056568;28;20883;-47
2021/10/29 01:07:48;;;;;;;19.63;13.90;;;9.40;1.00;;;;;;5056571;28;20462;-49
2021/10/29 01:10:16;;;;;;;17.63;13.50;;;9.50;1.00;;;;;;5056365;28;20470;-52
2021/10/29 01:12:44;;;;;;;21.23;14.80;;;9.60;1.00;;;;;;5056706;28;20462;-45
2021/10/29 01:15:11;;;;;;;18.43;14.17;;;9.60;1.00;;;;;;5056713;28;20515;-46
2021/10/29 01:17:39;;;;;;;20.83;14.37;;;9.60;1.00;;;;;;5053472;28;20512;-45
2021/10/29 01:20:08;;;;;;;16.47;13.50;;;9.60;1.00;;;;;;5056413;28;21010;-45
2021/10/29 01:22:39;;;;;;;20.30;14.13;;;9.60;1.00;;;;;;5055898;28;20444;-45
2021/10/29 01:25:12;;;;;;;24.27;13.90;;;9.50;1.00;;;;;;5056628;28;20469;-45
2021/10/29 01:27:39;;;;;;;18.80;13.77;;;9.50;1.00;;;;;;5056401;28;20889;-45
2021/10/29 01:30:11;;;;;;;21.30;13.90;;;9.50;1.00;;;;;;5056368;28;20504;-52
2021/10/29 01:32:39;;;;;;;18.60;14.03;;;9.40;1.00;;;;;;5056413;28;20497;-45
2021/10/29 01:35:10;;;;;;;22.37;15.07;;;9.40;1.00;;;;;;5056247;28;20466;-49
2021/10/29 01:37:39;;;;;;;17.03;13.50;;;9.40;1.00;;;;;;5056059;28;20955;-45
2021/10/29 01:40:08;;;;;;;17.53;14.07;;;9.40;1.00;;;;;;5056116;28;20477;-50
2021/10/29 01:42:35;;;;;;;20.63;13.07;;;9.40;1.00;;;;;;5056583;28;20458;-47
2021/10/29 01:45:06;;;;;;;19.27;13.13;;;9.40;1.00;;;;;;5056344;28;20458;-48
2021/10/29 01:47:39;;;;;;;16.87;13.47;;;9.50;1.00;;;;;;5056144;28;20497;-46
2021/10/29 01:50:08;;;;;;;19.03;14.53;;;9.60;1.00;;;;;;5056115;28;20466;-46
2021/10/29 01:52:35;;;;;;;18.50;13.30;;;9.60;1.00;;;;;;5055867;28;20469;-47
2021/10/29 01:55:12;;;;;;;18.00;14.00;;;9.50;1.00;;;;;;5056251;28;20466;-48
2021/10/29 01:57:39;;;;;;;18.50;13.43;;;9.50;1.00;;;;;;5055886;28;20500;-47
2021/10/29 02:00:08;;;;;;;19.33;14.37;;;9.40;1.00;;;;;;5055756;28;20458;-46
2021/10/29 02:02:37;;;;;;;19.83;13.70;;;9.40;1.00;;;;;;5039791;28;20512;-47
2021/10/29 02:05:06;;;;;;;20.60;14.73;;;9.40;1.00;;;;;;5055911;28;20465;-45
2021/10/29 02:07:33;;;;;;;17.57;12.77;;;9.40;1.00;;;;;;5055912;28;20924;-47
2021/10/29 02:10:00;;;;;;;19.60;14.80;;;9.30;1.00;;;;;;5056041;28;20459;-45
2021/10/29 02:12:28;;;;;;;19.20;14.30;;;9.30;1.00;;;;;;5059823;28;20577;-45
2021/10/29 02:14:55;;;;;;;25.03;14.63;;;9.40;1.00;;;;;;5059259;28;20515;-48
2021/10/29 02:17:25;;;;;;;17.37;13.53;;;9.30;1.00;;;;;;5059721;28;20848;-46
2021/10/29 02:19:51;;;;;;;20.40;15.03;;;9.30;1.00;;;;;;5059909;28;20465;-46
2021/10/29 02:22:21;;;;;;;17.47;12.90;;;9.40;1.00;;;;;;5059355;28;20466;-46
2021/10/29 02:24:48;;;;;;;16.90;13.30;;;9.40;1.00;;;;;;5059298;28;20463;-46
2021/10/29 02:27:21;;;;;;;20.10;13.60;;;9.40;1.00;;;;;;5059289;28;20492;-45
2021/10/29 02:29:53;;;;;;;20.33;14.07;;;9.40;1.00;;;;;;5058991;28;20466;-47
2021/10/29 02:32:19;;;;;;;17.30;13.70;;;9.30;1.00;;;;;;5059232;28;20471;-49
2021/10/29 02:34:47;;;;;;;19.07;14.23;;;9.40;1.00;;;;;;5059186;28;20466;-48
2021/10/29 02:37:14;;;;;;;18.70;13.73;;;9.30;1.00;;;;;;5059800;28;20458;-45
2021/10/29 02:39:41;;;;;;;17.03;12.60;;;9.40;1.00;;;;;;5059040;28;20516;-48
2021/10/29 02:42:09;;;;;;;19.03;13.47;;;9.40;1.00;;;;;;5059571;28;20458;-46
2021/10/29 02:44:37;;;;;;;18.47;12.93;;;9.50;1.00;;;;;;5058955;28;20856;-45
2021/10/29 02:47:05;;;;;;;17.60;13.40;;;9.60;1.00;;;;;;5059005;28;20494;-45
2021/10/29 02:49:32;;;;;;;16.00;13.37;;;9.60;1.00;;;;;;5058568;28;20544;-45
2021/10/29 02:51:59;;;;;;;18.10;13.07;;;9.60;1.00;;;;;;5058966;28;20915;-48
2021/10/29 02:54:27;;;;;;;17.60;13.33;;;9.60;1.00;;;;;;5058673;28;20490;-48
2021/10/29 02:56:54;;;;;;;19.60;13.23;;;9.50;1.00;;;;;;5059024;28;20800;-45
2021/10/29 02:59:21;;;;;;;16.90;12.40;;;9.50;1.00;;;;;;5059252;28;20516;-45
2021/10/29 03:01:48;;;;;;;16.10;12.43;;;9.50;1.00;;;;;;5058512;28;20915;-48
2021/10/29 03:04:17;;;;;;;18.77;14.67;;;9.50;1.00;;;;;;5058473;28;20494;-45
2021/10/29 03:06:44;;;;;;;16.00;12.33;;;9.60;1.00;;;;;;5058748;28;20866;-45
2021/10/29 03:09:11;;;;;;;16.77;12.70;;;9.60;1.00;;;;;;5058893;28;20481;-46
2021/10/29 03:11:40;;;;;;;18.60;12.47;;;9.60;1.00;;;;;;5058267;28;20462;-46
2021/10/29 03:14:08;;;;;;;17.73;13.40;;;9.70;1.00;;;;;;5058746;28;20748;-47
2021/10/29 03:16:35;;;;;;;17.70;12.20;;;9.70;1.00;;;;;;5058467;28;20511;-52
2021/10/29 03:19:02;;;;;;;23.53;13.20;;;9.80;1.00;;;;;;5058294;28;20492;-49
2021/10/29 03:21:31;;;;;;;19.37;13.53;;;9.80;1.00;;;;;;5058296;28;20474;-47
2021/10/29 03:23:58;;;;;;;19.20;13.27;;;9.90;1.00;;;;;;5058182;28;20520;-47
2021/10/29 03:26:25;;;;;;;21.40;13.50;;;10.00;1.00;;;;;;5058410;28;20490;-47
2021/10/29 03:28:55;;;;;;;14.43;11.87;;;10.00;1.00;;;;;;5058375;28;20469;-45
2021/10/29 03:31:22;;;;;;;16.43;12.27;;;10.10;1.00;;;;;;5058362;28;20484;-47
2021/10/29 03:33:49;;;;;;;14.33;12.10;;;10.10;1.00;;;;;;5057893;28;20805;-46
2021/10/29 03:36:16;;;;;;;14.50;11.80;;;10.10;1.00;;;;;;5058420;28;20459;-46
2021/10/29 03:38:51;;;;;;;13.60;11.43;;;10.10;1.00;;;;;;5058691;28;20842;-45
2021/10/29 03:41:20;;;;;;;17.87;12.90;;;10.20;1.00;;;;;;5058843;28;20461;-46
2021/10/29 03:43:54;;;;;;;16.13;10.97;;;10.30;1.00;;;;;;5058158;28;20873;-45
2021/10/29 03:46:25;;;;;;;13.97;11.50;;;10.30;1.00;;;;;;5058299;28;20490;-49
2021/10/29 03:49:10;;;;;;;14.57;10.10;;;10.30;1.00;;;;;;5058154;28;20458;-49
2021/10/29 03:51:40;;;;;;;14.03;10.83;;;10.40;1.00;;;;;;5057992;28;20469;-47
2021/10/29 03:54:15;;;;;;;14.97;10.87;;;10.40;1.00;;;;;;5058073;28;20841;-45
2021/10/29 03:56:45;;;;;;;16.40;12.00;;;10.50;1.00;;;;;;5058164;28;20458;-46
2021/10/29 03:59:13;;;;;;;14.37;10.80;;;10.60;1.00;;;;;;5058373;28;20462;-50
2021/10/29 04:01:41;;;;;;;16.97;10.33;;;10.50;1.00;;;;;;5057678;28;20466;-46
2021/10/29 04:04:08;;;;;;;15.50;10.80;;;10.60;1.00;;;;;;5057169;28;20771;-49
2021/10/29 04:06:36;;;;;;;14.90;10.57;;;10.70;1.00;;;;;;5057563;28;20501;-45
2021/10/29 04:09:03;;;;;;;11.73;9.70;;;10.70;1.00;;;;;;5057575;28;20938;-49
2021/10/29 04:11:36;;;;;;;16.20;10.50;;;10.70;1.00;;;;;;5057471;28;20504;-45
2021/10/29 04:14:05;;;;;;;12.20;10.10;;;10.70;1.00;;;;;;5057362;28;20462;-46
2021/10/29 04:16:36;;;;;;;13.23;11.03;;;10.70;1.00;;;;;;5057491;28;20462;-48
2021/10/29 04:19:07;;;;;;;13.33;10.70;;;10.80;1.00;;;;;;5057348;28;20441;-52
2021/10/29 04:21:35;;;;;;;12.17;9.40;;;10.70;1.00;;;;;;5057417;28;20458;-49
2021/10/29 04:24:03;;;;;;;17.27;11.63;;;10.80;1.00;;;;;;5057030;28;20784;-47
2021/10/29 04:26:34;;;;;;;20.60;11.80;;;10.80;1.00;;;;;;5057043;28;20489;-48
2021/10/29 04:29:02;;;;;;;15.00;11.63;;;10.80;1.00;;;;;;5057245;28;20742;-45
2021/10/29 04:31:32;;;;;;;17.90;11.00;;;10.80;1.00;;;;;;5056953;28;20476;-47
2021/10/29 04:33:59;;;;;;;15.63;12.23;;;10.80;1.00;;;;;;5056627;28;20557;-46
2021/10/29 04:36:26;;;;;;;13.00;10.40;;;10.80;1.00;;;;;;5057092;28;20490;-49
2021/10/29 04:38:53;;;;;;;17.10;11.50;;;10.70;1.00;;;;;;5057125;28;20458;-49
2021/10/29 04:41:20;;;;;;;14.57;11.13;;;10.70;1.00;;;;;;5057106;28;20458;-46
2021/10/29 04:43:50;;;;;;;14.13;11.00;;;10.70;1.00;;;;;;5056451;28;20465;-48
2021/10/29 04:46:17;;;;;;;17.43;12.37;;;10.70;1.00;;;;;;5056904;28;20466;-45
2021/10/29 04:48:44;;;;;;;15.47;11.33;;;10.60;1.00;;;;;;5057209;28;20957;-45
2021/10/29 04:51:11;;;;;;;16.13;12.60;;;10.60;1.00;;;;;;5056555;28;20778;-47
2021/10/29 04:53:38;;;;;;;24.63;16.03;;;10.60;1.00;;;;;;5056307;28;20465;-47
2021/10/29 04:56:05;;;;;;;24.97;16.50;;;10.60;1.00;;;;;;5057158;28;20462;-45
2021/10/29 04:58:32;;;;;;;23.80;15.37;;;10.60;1.00;;;;;;5056819;28;20457;-45
2021/10/29 05:01:00;;;;;;;21.97;16.93;;;10.60;1.00;;;;;;5056568;28;20516;-45
2021/10/29 05:03:28;;;;;;;21.17;13.53;;;10.60;1.00;;;;;;5056188;28;20500;-46
2021/10/29 05:05:57;;;;;;;22.80;15.80;;;10.60;1.00;;;;;;5056001;28;20557;-47
2021/10/29 05:08:24;;;;;;;18.90;13.30;;;10.60;1.00;;;;;;5056545;28;20490;-46
2021/10/29 05:10:53;;;;;;;18.37;13.40;;;10.60;1.00;;;;;;5056443;28;20485;-45
2021/10/29 05:13:20;;;;;;;17.80;13.00;;;10.60;1.00;;;;;;5056603;28;20462;-47
2021/10/29 05:15:47;;;;;;;17.73;13.63;;;10.60;1.00;;;;;;5056157;28;20877;-48
2021/10/29 05:18:16;;;;;;;17.57;12.97;;;10.60;1.00;;;;;;5056495;28;20520;-46
2021/10/29 05:20:44;;;;;;;16.10;13.07;;;10.60;1.00;;;;;;5055973;28;20559;-46
2021/10/29 05:23:11;;;;;;;16.70;13.37;;;10.60;1.00;;;;;;5055217;28;20458;-50
2021/10/29 05:25:38;;;;;;;14.57;12.30;;;10.50;1.00;;;;;;5055920;28;20458;-46
2021/10/29 05:28:09;;;;;;;14.93;10.97;;;10.50;1.00;;;;;;5055759;28;20979;-48
2021/10/29 05:30:37;;;;;;;13.40;11.30;;;10.50;1.00;;;;;;5055581;28;20467;-47
2021/10/29 05:33:04;;;;;;;14.20;11.77;;;10.50;1.00;;;;;;5055833;28;20881;-49
2021/10/29 05:35:33;;;;;;;17.93;11.93;;;10.40;1.00;;;;;;5056262;28;20519;-47
2021/10/29 05:38:03;;;;;;;17.47;12.67;;;10.40;1.00;;;;;;5056407;28;20462;-48
2021/10/29 05:40:32;;;;;;;15.97;10.93;;;10.30;1.00;;;;;;5056648;28;20474;-47
2021/10/29 05:43:01;;;;;;;16.10;11.93;;;10.30;1.00;;;;;;5056563;28;20577;-45
2021/10/29 05:45:33;;;;;;;13.67;11.20;;;10.30;1.00;;;;;;5056900;28;20762;-46
2021/10/29 05:48:04;;;;;;;13.10;10.43;;;10.40;1.00;;;;;;5060084;28;20500;-46
2021/10/29 05:50:33;;;;;;;14.27;11.20;;;10.40;1.00;;;;;;5060337;28;20520;-46
2021/10/29 05:53:04;;;;;;;14.53;10.13;;;10.40;1.00;;;;;;5059415;28;20851;-49
2021/10/29 05:55:34;;;;;;;16.23;11.80;;;10.30;1.00;;;;;;5059923;28;20465;-52
2021/10/29 05:58:06;;;;;;;14.10;10.53;;;10.30;1.00;;;;;;5060163;28;20767;-46
2021/10/29 06:00:36;;;;;;;14.53;10.50;;;10.20;1.00;;;;;;5060075;28;20825;-53
2021/10/29 06:03:06;;;;;;;16.20;11.10;;;10.20;1.00;;;;;;5059518;28;20489;-48
2021/10/29 06:05:34;;;;;;;15.40;10.50;;;10.10;1.00;;;;;;5059639;28;20524;-51
2021/10/29 06:08:03;;;;;;;15.70;11.37;;;10.10;1.00;;;;;;5059517;28;20501;-46
2021/10/29 06:10:31;;;;;;;15.10;11.23;;;10.10;1.00;;;;;;5059750;28;20459;-45
2021/10/29 06:12:58;;;;;;;18.50;13.07;;;10.10;1.00;;;;;;5059765;28;20444;-45
2021/10/29 06:15:25;;;;;;;17.90;13.20;;;10.10;1.00;;;;;;5058879;28;20469;-46
2021/10/29 06:17:59;;;;;;;20.50;15.13;;;10.10;1.00;;;;;;5059521;28;20433;-50
2021/10/29 06:20:27;;;;;;;23.10;13.83;;;10.20;1.00;;;;;;5059857;28;20530;-46
2021/10/29 06:22:56;;;;;;;21.20;14.90;;;10.20;1.00;;;;;;5059225;28;20472;-46
2021/10/29 06:25:28;;;;;;;22.70;14.67;;;10.20;1.00;;;;;;5057818;28;20472;-50
2021/10/29 06:28:20;;;;;;;34.70;20.90;;;10.10;1.00;;;;;;5058612;28;20497;-45
2021/10/29 06:30:50;;;;;;;25.53;16.00;;;10.10;1.00;;;;;;5059828;28;20873;-47
2021/10/29 06:33:20;;;;;;;20.63;13.60;;;10.20;1.00;;;;;;5059023;28;20877;-45
2021/10/29 06:35:47;;;;;;;49.97;29.43;;;10.10;1.00;;;;;;5059611;28;20470;-51
2021/10/29 06:38:22;;;;;;;17.90;13.13;;;10.20;1.00;;;;;;5059337;28;20458;-45
2021/10/29 06:40:56;;;;;;;38.57;22.63;;;10.20;1.00;;;;;;5059189;28;20866;-51
2021/10/29 06:43:31;;;;;;;36.53;21.80;;;10.20;1.00;;;;;;5056716;28;20466;-45
2021/10/29 06:46:21;;;;;;;23.13;17.63;;;10.20;1.00;;;;;;5046491;28;20454;-45
2021/10/29 07:00:11;;;;;;;18.17;13.87;;;10.40;1.00;;;;;;5057373;28;20437;-49
2021/10/29 07:41:42;;;;;;;13.90;11.27;;;11.10;1.00;;;;;;5039170;28;20485;-47
2021/10/29 07:44:15;;;;;;;12.07;10.50;;;11.20;1.00;;;;;;5056057;28;20463;-48
2021/10/29 07:46:47;;;;;;;15.37;11.70;;;11.40;1.00;;;;;;5058260;28;20470;-52
2021/10/29 07:49:18;;;;;;;23.17;12.33;;;11.50;1.00;;;;;;5057594;28;20509;-46
2021/10/29 07:51:47;;;;;;;14.10;11.97;;;11.60;1.00;;;;;;5057811;28;20564;-49
2021/10/29 07:54:34;;;;;;;12.40;10.27;;;11.70;1.00;;;;;;5057521;28;20462;-52
2021/10/29 07:57:07;;;;;;;12.60;10.70;;;11.70;1.00;;;;;;5057503;28;20466;-51
2021/10/29 07:59:41;;;;;;;14.10;11.40;;;11.80;1.00;;;;;;5057441;28;20742;-49
2021/10/29 08:02:09;;;;;;;16.03;11.80;;;11.80;1.00;;;;;;5055923;28;20461;-52
2021/10/29 08:04:36;;;;;;;13.03;10.90;;;11.90;1.00;;;;;;5055885;28;20905;-45
2021/10/29 08:07:09;;;;;;;17.87;11.60;;;12.00;1.00;;;;;;5057950;28;20470;-53
2021/10/29 08:09:45;;;;;;;17.07;11.37;;;12.10;1.00;;;;;;5056004;28;20501;-46
2021/10/29 08:12:15;;;;;;;12.80;10.33;;;12.20;1.00;;;;;;5055905;28;20433;-52
2021/10/29 08:14:44;;;;;;;15.80;11.30;;;12.20;1.00;;;;;;5057615;28;20766;-45
2021/10/29 08:17:14;;;;;;;12.37;11.00;;;12.20;1.00;;;;;;5051752;28;20868;-51
2021/10/29 08:19:41;;;;;;;13.63;10.70;;;12.30;1.00;;;;;;5052122;28;20458;-46
2021/10/29 08:22:13;;;;;;;15.53;12.40;;;12.30;1.00;;;;;;5050815;28;20472;-45
2021/10/29 08:24:41;;;;;;;12.70;11.40;;;12.30;1.00;;;;;;5052954;28;20474;-45
2021/10/29 08:27:11;;;;;;;16.17;11.70;;;12.30;1.00;;;;;;5056298;28;20830;-45
2021/10/29 08:29:39;;;;;;;13.50;11.40;;;12.20;1.00;;;;;;5048099;28;20570;-52
2021/10/29 08:32:09;;;;;;;12.00;10.47;;;12.20;1.00;;;;;;5050497;28;20532;-49
2021/10/29 08:34:36;;;;;;;12.93;11.50;;;12.20;1.00;;;;;;5044306;28;20881;-47
2021/10/29 08:37:06;;;;;;;15.20;12.03;;;12.10;1.00;;;;;;5046844;28;20789;-49
2021/10/29 08:39:37;;;;;;;15.73;12.40;;;12.10;1.00;;;;;;5056911;28;20829;-52
2021/10/29 08:42:09;;;;;;;12.60;10.90;;;12.00;1.00;;;;;;5055486;28;20520;-54
2021/10/29 08:44:37;;;;;;;15.53;11.73;;;12.00;1.00;;;;;;5053121;28;20888;-47
2021/10/29 08:47:09;;;;;;;13.93;11.40;;;12.00;1.00;;;;;;5052923;28;20951;-49
2021/10/29 08:49:37;;;;;;;14.90;11.30;;;12.00;1.00;;;;;;5050621;28;20500;-47
2021/10/29 08:52:06;;;;;;;14.97;10.60;;;12.00;1.00;;;;;;5047190;28;20919;-47
2021/10/29 08:54:38;;;;;;;13.53;10.27;;;12.10;1.00;;;;;;5047527;28;20836;-47
2021/10/29 08:57:05;;;;;;;13.83;10.43;;;12.10;1.00;;;;;;5048735;28;20467;-46
2021/10/29 08:59:34;;;;;;;14.70;10.67;;;12.30;1.00;;;;;;5051204;28;20466;-48
2021/10/29 09:02:11;;;;;;;13.80;11.83;;;12.30;1.00;;;;;;5045544;28;20552;-46
2021/10/29 09:04:52;;;;;;;13.80;11.47;;;12.50;1.00;;;;;;5053097;28;20580;-52
2021/10/29 09:07:43;;;;;;;14.30;11.37;;;12.50;1.00;;;;;;5054439;28;20565;-47
2021/10/29 09:10:45;;;;;;;15.73;11.17;;;12.60;1.00;;;;;;5048590;28;20490;-46
2021/10/29 09:31:27;;;;;;;17.07;12.93;;;13.60;1.00;;;;;;5055628;28;20449;-46
2021/10/29 09:33:59;;;;;;;13.83;12.40;;;13.70;1.00;;;;;;5052148;28;20520;-46
2021/10/29 09:36:30;;;;;;;12.80;11.40;;;13.60;1.00;;;;;;5051234;28;20441;-47
2021/10/29 09:39:06;;;;;;;13.90;12.07;;;13.80;1.00;;;;;;5049622;28;20454;-47
2021/10/29 09:41:35;;;;;;;17.40;12.80;;;13.90;1.00;;;;;;5049782;28;20557;-51
2021/10/29 09:44:04;;;;;;;17.30;12.60;;;13.90;1.00;;;;;;5049411;28;20749;-50
2021/10/29 09:46:43;;;;;;;13.20;11.10;;;13.90;1.00;;;;;;5050774;28;21017;-53
2021/10/29 09:49:13;;;;;;;16.17;12.23;;;13.90;1.00;;;;;;5050740;28;20569;-46
2021/10/29 09:51:52;;;;;;;12.50;10.60;;;14.00;1.00;;;;;;5047751;28;20454;-45
2021/10/29 09:54:36;;;;;;;13.33;11.33;;;14.10;1.00;;;;;;5050288;28;20460;-54
2021/10/29 09:57:20;;;;;;;13.30;10.30;;;14.10;1.00;;;;;;5050636;28;20454;-47
2021/10/29 09:59:48;;;;;;;12.80;11.50;;;14.20;1.00;;;;;;5051720;28;20450;-46
2021/10/29 10:02:20;;;;;;;13.03;10.33;;;14.50;1.00;;;;;;5051542;28;20948;-49
2021/10/29 10:04:51;;;;;;;10.70;9.60;;;14.60;1.00;;;;;;5050005;28;20465;-46
2021/10/29 10:07:29;;;;;;;15.93;10.77;;;14.30;1.00;;;;;;5050210;28;20459;-50
2021/10/29 10:10:05;;;;;;;12.30;10.33;;;14.10;1.00;;;;;;5049691;28;20556;-49
2021/10/29 10:12:39;;;;;;;11.13;9.53;;;14.20;1.00;;;;;;5051424;28;20467;-47
2021/10/29 10:15:14;;;;;;;15.63;11.50;;;14.20;1.00;;;;;;5051650;28;20537;-46
2021/10/29 10:17:42;;;;;;;11.80;10.43;;;14.30;1.00;;;;;;5050316;28;20470;-46
2021/10/29 10:20:12;;;;;;;12.13;10.33;;;14.40;1.00;;;;;;5050809;28;20829;-48
2021/10/29 10:22:42;;;;;;;12.20;10.30;;;14.40;1.00;;;;;;5050982;28;20762;-49
2021/10/29 10:25:32;;;;;;;12.97;10.60;;;14.30;1.00;;;;;;5051417;28;20464;-46
2021/10/29 10:31:05;;;;;;;19.10;11.30;;;14.30;1.00;;;;;;5022247;28;20912;-46
2021/10/29 10:42:49;;;;;;;11.50;9.27;;;15.30;1.00;;;;;;5055942;28;20445;-50
2021/10/29 10:45:37;;;;;;;10.07;9.07;;;16.00;1.00;;;;;;5049956;28;20467;-49
2021/10/29 10:48:12;;;;;;;10.63;9.53;;;16.40;99.90;;;;;;5052720;28;20497;-48
2021/10/29 10:50:51;;;;;;;11.90;9.50;;;16.50;99.90;;;;;;5059051;28;20868;-49
2021/10/29 10:53:52;;;;;;;10.93;8.37;;;16.70;99.90;;;;;;5042654;28;20454;-51
2021/10/29 10:56:39;;;;;;;10.30;8.33;;;16.80;99.90;;;;;;5048719;28;20473;-51
2021/10/29 10:59:38;;;;;;;9.33;8.20;;;16.50;99.90;;;;;;5059044;28;20885;-47
2021/10/29 11:05:23;;;;;;;11.97;8.63;;;17.00;99.90;;;;;;4998203;28;20447;-49
2021/10/29 11:10:36;;;;;;;9.10;7.73;;;16.70;99.90;;;;;;4984366;28;20539;-46
2021/10/29 11:13:11;;;;;;;9.13;7.70;;;17.20;99.90;;;;;;5019191;28;20505;-56
2021/10/29 11:15:56;;;;;;;9.23;8.13;;;17.90;99.90;;;;;;5018056;28;20471;-54
2021/10/29 11:18:31;;;;;;;11.60;8.43;;;18.30;99.90;;;;;;5018604;28;20456;-48
2021/10/29 11:21:08;;;;;;;7.47;6.77;;;18.00;99.90;;;;;;5012249;28;20470;-49
2021/10/29 11:23:39;;;;;;;6.90;6.30;;;17.50;99.90;;;;;;5007919;28;20468;-53
2021/10/29 11:26:09;;;;;;;7.30;6.57;;;17.50;99.90;;;;;;5011597;28;20555;-49
2021/10/29 11:28:39;;;;;;;9.00;5.90;;;17.50;99.90;;;;;;5018380;28;20546;-51
2021/10/29 11:31:11;;;;;;;9.97;7.40;;;17.80;99.90;;;;;;5018888;28;20472;-56
2021/10/29 11:33:40;;;;;;;7.03;6.33;;;18.00;99.90;;;;;;5018209;28;20871;-51
2021/10/29 11:36:10;;;;;;;5.77;5.10;;;18.00;99.90;;;;;;5018460;28;20468;-48
2021/10/29 11:38:41;;;;;;;7.63;6.90;;;18.10;99.90;;;;;;5017875;28;20471;-53
2021/10/29 11:41:15;;;;;;;8.00;6.70;;;18.40;99.90;;;;;;5017803;28;20468;-53
2021/10/29 11:43:49;;;;;;;7.20;6.50;;;18.30;99.90;;;;;;5017320;28;20794;-54
2021/10/29 11:46:27;;;;;;;7.00;6.20;;;18.10;99.90;;;;;;5017980;28;20478;-49
2021/10/29 11:49:01;;;;;;;7.10;6.50;;;17.90;99.90;;;;;;5018277;28;20586;-50
2021/10/29 11:51:29;;;;;;;7.70;5.80;;;17.80;99.90;;;;;;5017936;28;20560;-52
2021/10/29 11:54:00;;;;;;;6.90;6.07;;;17.60;99.90;;;;;;5017938;28;20467;-45
2021/10/29 11:56:38;;;;;;;8.23;6.60;;;17.20;99.90;;;;;;5018140;28;20475;-46
2021/10/29 12:07:32;;;;;;;5.90;5.40;;;17.00;99.90;;;;;;5050397;28;20466;-53
2021/10/29 12:10:06;;;;;;;7.17;6.47;;;17.40;99.90;;;;;;5047343;28;20494;-52
2021/10/29 12:12:38;;;;;;;7.30;6.10;;;17.70;99.90;;;;;;5046694;28;20512;-53
2021/10/29 12:15:15;;;;;;;7.10;6.10;;;17.80;99.90;;;;;;5049316;28;20848;-51
2021/10/29 12:17:52;;;;;;;6.37;5.77;;;17.90;99.90;;;;;;5047992;28;20546;-46
2021/10/29 12:20:23;;;;;;;6.30;5.80;;;17.80;99.90;;;;;;5048209;28;20428;-53
2021/10/29 12:22:56;;;;;;;6.70;6.00;;;17.80;99.90;;;;;;5049727;28;20511;-51
2021/10/29 12:25:31;;;;;;;7.23;6.53;;;17.70;99.90;;;;;;5048164;28;20773;-51
2021/10/29 12:28:10;;;;;;;6.50;5.90;;;17.50;99.90;;;;;;5048343;28;20501;-55
2021/10/29 12:30:48;;;;;;;9.33;5.47;;;17.50;99.90;;;;;;5049404;28;20516;-56
2021/10/29 12:53:30;;;;;;;7.50;5.53;;;17.20;99.90;;;;;;5056325;28;20487;-49
2021/10/29 13:01:52;;;;;;;6.70;6.07;;;16.50;99.90;;;;;;5051501;28;20443;-53
2021/10/29 13:04:21;;;;;;;7.00;6.00;;;16.40;99.90;;;;;;5066678;28;20490;-53
2021/10/29 13:07:05;;;;;;;6.83;5.73;;;16.30;99.90;;;;;;5057496;28;20494;-56
2021/10/29 13:09:35;;;;;;;6.70;6.10;;;16.30;99.90;;;;;;5065456;28;20790;-51
2021/10/29 13:12:08;;;;;;;6.03;5.43;;;16.30;99.90;;;;;;5076865;28;20468;-49
2021/10/29 13:14:40;;;;;;;7.13;6.37;;;16.20;99.90;;;;;;5056871;28;20493;-54
2021/10/29 13:17:11;;;;;;;7.37;6.30;;;16.20;99.90;;;;;;5056699;28;20888;-48
2021/10/29 13:19:56;;;;;;;11.93;6.60;;;16.10;99.90;;;;;;5055275;28;20465;-49
2021/10/29 13:25:43;;;;;;;5.77;5.17;;;16.00;99.90;;;;;;5056424;28;20438;-49
2021/10/29 13:28:19;;;;;;;8.80;6.40;;;16.00;99.90;;;;;;5050157;28;21127;-45
2021/10/29 13:36:40;;;;;;;6.97;5.20;;;16.00;99.90;;;;;;5054035;28;20465;-51
2021/10/29 13:50:39;;;;;;;7.23;5.80;;;16.10;99.90;;;;;;5055871;28;20837;-45
2021/10/29 13:53:20;;;;;;;8.07;5.97;;;16.10;99.90;;;;;;5054326;28;20468;-51
2021/10/29 13:56:13;;;;;;;6.00;5.40;;;16.00;99.90;;;;;;5039542;28;20489;-47
2021/10/29 13:59:00;;;;;;;6.70;6.00;;;16.00;99.90;;;;;;5056415;28;20454;-52
2021/10/29 14:29:19;;;;;;;8.73;6.10;;;15.90;99.90;;;;;;5059204;28;20484;-45
2021/10/29 14:31:48;;;;;;;10.13;5.40;;;15.90;99.90;;;;;;5059192;28;20442;-45
2021/10/29 14:34:27;;;;;;;8.27;6.23;;;15.90;99.90;;;;;;5058912;28;20458;-47
2021/10/29 14:36:59;;;;;;;6.97;6.30;;;15.90;99.90;;;;;;5056985;28;20519;-45
2021/10/29 14:39:34;;;;;;;7.00;5.93;;;15.90;99.90;;;;;;5066285;28;20999;-47
2021/10/29 14:42:11;;;;;;;7.77;6.03;;;15.90;99.90;;;;;;5061125;28;20515;-45
2021/10/29 14:44:48;;;;;;;6.80;6.20;;;15.90;99.90;;;;;;5070183;28;20557;-47
2021/10/29 14:47:24;;;;;;;8.13;7.27;;;15.80;99.90;;;;;;5061416;28;20605;-46
2021/10/29 14:50:09;;;;;;;6.83;6.00;;;15.80;99.90;;;;;;5077673;28;20496;-47
2021/10/29 15:01:51;;;;;;;6.17;5.67;;;15.70;99.90;;;;;;5036811;28;20445;-54
2021/10/29 15:04:35;;;;;;;9.83;6.30;;;15.60;99.90;;;;;;5036676;28;20498;-47
2021/10/29 15:07:22;;;;;;;6.50;5.90;;;15.60;99.90;;;;;;5052408;28;20469;-49
2021/10/29 15:15:50;;;;;;;7.03;5.77;;;15.50;99.90;;;;;;5057252;28;20464;-45
2021/10/29 15:26:57;;;;;;;12.27;6.20;;;15.30;99.90;;;;;;5060703;28;20495;-51
2021/10/29 15:29:52;;;;;;;5.70;5.00;;;15.30;99.90;;;;;;5065205;28;20521;-49
2021/10/29 15:32:53;;;;;;;6.63;6.03;;;15.30;99.90;;;;;;5070102;28;20476;-48
2021/10/29 15:43:54;;;;;;;6.37;5.67;;;15.10;99.90;;;;;;5036493;28;20447;-50
2021/10/29 15:46:32;;;;;;;6.00;5.30;;;15.10;99.90;;;;;;5034325;28;20452;-45
2021/10/29 15:49:09;;;;;;;6.50;5.80;;;15.00;1.00;;;;;;5031956;28;21028;-49
2021/10/29 15:51:37;;;;;;;6.27;5.40;;;15.00;99.90;;;;;;5045468;28;20461;-49
2021/10/29 15:54:07;;;;;;;7.93;6.23;;;14.90;99.90;;;;;;5061062;28;20465;-46
2021/10/29 15:56:37;;;;;;;9.33;5.73;;;14.90;99.90;;;;;;5057755;28;20469;-49
2021/10/29 15:59:18;;;;;;;8.97;7.00;;;14.80;99.90;;;;;;5056987;28;20497;-49
2021/10/29 16:02:04;;;;;;;8.03;6.60;;;14.70;1.00;;;;;;5057957;28;20462;-45
2021/10/29 16:18:27;;;;;;;5.60;5.10;;;14.40;1.00;;;;;;5056735;28;20457;-52
2021/10/29 16:20:54;;;;;;;6.10;5.57;;;14.40;1.00;;;;;;5050553;28;20454;-50
2021/10/29 16:23:27;;;;;;;9.10;7.10;;;14.30;1.00;;;;;;5047883;28;20454;-49
2021/10/29 16:26:07;;;;;;;9.83;5.77;;;14.30;1.00;;;;;;5047115;28;20458;-49
2021/10/29 16:28:36;;;;;;;7.10;6.33;;;14.20;1.00;;;;;;5052059;28;20482;-49
2021/10/29 16:31:03;;;;;;;8.27;6.70;;;14.20;1.00;;;;;;5046756;28;20941;-53
2021/10/29 16:33:36;;;;;;;7.23;6.30;;;14.10;1.00;;;;;;5047771;28;20463;-52
2021/10/29 16:36:06;;;;;;;10.37;6.77;;;14.10;1.00;;;;;;5053181;28;20458;-48
2021/10/29 16:38:38;;;;;;;12.23;6.00;;;14.10;1.00;;;;;;5052600;28;20467;-52
2021/10/29 16:41:25;;;;;;;9.00;7.00;;;14.00;1.00;;;;;;5047184;28;20531;-48